Cataratas International Airport


Codes: SBFI/IGU
Name: Cataratas International Airport
City: Foz Do Iguacu
Country: Brazil
Elevation: 786 ft.
Wikipedia:

Photos at Cataratas International Airport


   Photos courtesy of SpottingLog. You can add your own sightings and photos by signing up for a free trial today.



No photos found.

Weather at Cataratas International Airport


Time (UTC)DescriptionTempratureWindCloud coverageVisibilityPressureHumidity
25-Jun-2024 12:00Light Rain15°C4 mph, S100%10000m1018hPa99%
25-Jun-2024 15:00Overcast Clouds15°C2 mph, S100%10000m1018hPa97%
25-Jun-2024 18:00Overcast Clouds16°C2 mph, W100%10000m1017hPa93%
25-Jun-2024 21:00Overcast Clouds16°C2 mph, SW100%10000m1016hPa92%
26-Jun-2024 00:00Overcast Clouds15°C0 mph, SW86%10000m1017hPa98%
26-Jun-2024 03:00Broken Clouds14°C0 mph, W65%10000m1018hPa97%
26-Jun-2024 06:00Broken Clouds15°C2 mph, W69%10000m1017hPa94%
26-Jun-2024 09:00Overcast Clouds16°C2 mph, W100%10000m1018hPa93%
26-Jun-2024 12:00Light Rain15°C2 mph, SW100%10000m1020hPa94%
26-Jun-2024 15:00Light Rain14°C2 mph, SW100%10000m1021hPa90%
26-Jun-2024 18:00Overcast Clouds14°C4 mph, SW100%10000m1019hPa89%
26-Jun-2024 21:00Overcast Clouds14°C4 mph, S100%10000m1019hPa91%
27-Jun-2024 00:00Overcast Clouds13°C4 mph, S100%10000m1020hPa88%
27-Jun-2024 03:00Overcast Clouds11°C2 mph, S100%10000m1020hPa95%
27-Jun-2024 06:00Overcast Clouds9°C2 mph, S96%10000m1019hPa99%
27-Jun-2024 09:00Broken Clouds8°C2 mph, SE83%10000m1018hPa98%
27-Jun-2024 12:00Broken Clouds11°C2 mph, SE75%10000m1018hPa85%
27-Jun-2024 15:00Few Clouds19°C0 mph, N18%10000m1017hPa47%
27-Jun-2024 18:00Broken Clouds22°C0 mph, S54%10000m1013hPa37%
27-Jun-2024 21:00Overcast Clouds16°C0 mph, SE91%10000m1012hPa65%
28-Jun-2024 00:00Overcast Clouds13°C2 mph, E96%10000m1012hPa76%
28-Jun-2024 03:00Broken Clouds12°C4 mph, E63%10000m1012hPa80%
28-Jun-2024 06:00Broken Clouds13°C2 mph, NE67%10000m1010hPa83%
28-Jun-2024 09:00Broken Clouds14°C2 mph, E71%10000m1010hPa86%
28-Jun-2024 12:00Overcast Clouds18°C2 mph, NE85%10000m1012hPa75%
28-Jun-2024 15:00Overcast Clouds20°C2 mph, N100%10000m1012hPa70%
28-Jun-2024 18:00Overcast Clouds21°C4 mph, S100%10000m1010hPa71%
28-Jun-2024 21:00Overcast Clouds17°C4 mph, S97%10000m1011hPa81%
29-Jun-2024 00:00Overcast Clouds17°C4 mph, S98%10000m1013hPa83%
29-Jun-2024 03:00Overcast Clouds16°C4 mph, S100%10000m1014hPa86%
29-Jun-2024 06:00Overcast Clouds15°C7 mph, S100%10000m1015hPa87%
29-Jun-2024 09:00Overcast Clouds14°C7 mph, S100%10000m1015hPa89%
29-Jun-2024 12:00Light Rain12°C7 mph, S100%8056m1019hPa97%
29-Jun-2024 15:00Light Rain13°C9 mph, S100%10000m1021hPa94%
29-Jun-2024 18:00Overcast Clouds13°C7 mph, S100%10000m1020hPa80%
29-Jun-2024 21:00Overcast Clouds11°C7 mph, S100%10000m1022hPa67%
30-Jun-2024 00:00Overcast Clouds9°C7 mph, S100%10000m1025hPa71%
30-Jun-2024 03:00Overcast Clouds7°C4 mph, S100%10000m1026hPa75%
30-Jun-2024 06:00Overcast Clouds6°C4 mph, S100%10000m1024hPa77%
30-Jun-2024 09:00Overcast Clouds5°C4 mph, S100%10000m1024hPa79%